Time;durP1;ratioP1;P1;durP2;ratioP2;P2;SDS_P1;SDS_P2;PMS_P1;PMS_P2;Temp;Humidity;BMP_temperature;BMP_pressure;BME280_temperature;BME280_humidity;BME280_pressure;Samples;Min_cycle;Max_cycle;Signal;HPM_P1;HPM_P2
2022/07/12 00:00:06;;;;;;;3.37;2.83;;;;;23.70;101312.00;;;;2070987;28;20301;-56
2022/07/12 00:01:06;;;;;;;2.90;2.30;;;;;23.70;101313.00;;;;2071054;28;20222;-55
2022/07/12 00:02:07;;;;;;;2.40;2.20;;;;;23.70;101316.00;;;;2071754;28;20210;-55
2022/07/12 00:03:07;;;;;;;2.67;2.20;;;;;23.70;101310.00;;;;2071431;28;20283;-55
2022/07/12 00:04:07;;;;;;;2.60;2.40;;;;;23.60;101324.00;;;;2072030;28;20357;-60
2022/07/12 00:05:08;;;;;;;4.93;2.00;;;;;23.70;101313.00;;;;2071030;28;20273;-56
2022/07/12 00:06:08;;;;;;;2.40;2.20;;;;;23.70;101333.00;;;;2054870;28;20242;-55
2022/07/12 00:07:08;;;;;;;2.97;2.70;;;;;23.70;101312.00;;;;2062791;28;20219;-54
2022/07/12 00:08:09;;;;;;;2.60;2.30;;;;;23.70;101307.00;;;;2067205;28;20232;-56
2022/07/12 00:09:09;;;;;;;3.00;2.40;;;;;23.60;101311.00;;;;2071685;28;20670;-55
2022/07/12 00:10:09;;;;;;;2.10;1.90;;;;;23.70;101315.00;;;;2071685;28;20585;-56
2022/07/12 00:11:10;;;;;;;2.50;2.20;;;;;23.70;101319.00;;;;2071779;28;20616;-55
2022/07/12 00:12:10;;;;;;;2.53;2.23;;;;;23.70;101313.00;;;;2071403;28;20222;-56
2022/07/12 00:13:10;;;;;;;3.10;2.50;;;;;23.70;101316.00;;;;2070015;28;20214;-55
2022/07/12 00:14:11;;;;;;;2.60;2.40;;;;;23.70;101312.00;;;;2071735;28;20214;-55
2022/07/12 00:15:11;;;;;;;2.60;2.40;;;;;23.70;101315.00;;;;2071809;28;20217;-56
2022/07/12 00:16:12;;;;;;;3.10;2.17;;;;;23.60;101315.00;;;;2071742;28;20245;-55
2022/07/12 00:17:12;;;;;;;2.73;2.33;;;;;23.60;101313.00;;;;2071486;28;20246;-55
2022/07/12 00:18:12;;;;;;;3.23;1.93;;;;;23.60;101311.00;;;;2071029;28;20214;-56
2022/07/12 00:19:13;;;;;;;3.90;2.20;;;;;23.70;101310.00;;;;2071635;28;20206;-55
2022/07/12 00:20:13;;;;;;;3.30;2.50;;;;;23.60;101316.00;;;;2071315;28;20710;-56
2022/07/12 00:21:13;;;;;;;4.00;2.40;;;;;23.60;101309.00;;;;2071338;28;20688;-55
2022/07/12 00:22:14;;;;;;;3.30;2.33;;;;;23.60;101313.00;;;;2071689;28;20631;-55
2022/07/12 00:23:14;;;;;;;2.80;2.20;;;;;23.60;101342.00;;;;2071528;28;20567;-55
2022/07/12 00:24:15;;;;;;;3.50;2.20;;;;;23.60;101297.00;;;;2071430;28;20728;-55
2022/07/12 00:25:15;;;;;;;2.10;1.90;;;;;23.60;101307.00;;;;2071793;28;20377;-55
2022/07/12 00:26:15;;;;;;;2.97;2.27;;;;;23.70;101315.00;;;;2071502;28;20268;-55
2022/07/12 00:27:16;;;;;;;3.63;2.10;;;;;23.60;101310.00;;;;2070963;28;20245;-55
2022/07/12 00:28:16;;;;;;;2.10;1.90;;;;;23.60;101310.00;;;;2071241;28;20214;-55
2022/07/12 00:29:16;;;;;;;2.30;2.10;;;;;23.60;101309.00;;;;2079492;28;20241;-55
2022/07/12 00:30:17;;;;;;;2.10;1.90;;;;;23.60;101316.00;;;;2079422;28;20243;-56
2022/07/12 00:31:17;;;;;;;4.63;2.10;;;;;23.60;101314.00;;;;2079377;28;20213;-56
2022/07/12 00:32:18;;;;;;;2.37;2.13;;;;;23.60;101315.00;;;;2079678;28;20228;-55
2022/07/12 00:33:18;;;;;;;2.80;2.13;;;;;23.60;101315.00;;;;2079672;28;20209;-55
2022/07/12 00:34:19;;;;;;;2.20;1.93;;;;;23.60;101315.00;;;;2079395;28;20214;-56
2022/07/12 00:35:19;;;;;;;2.80;1.90;;;;;23.60;101317.00;;;;2079560;28;20632;-56
2022/07/12 00:36:20;;;;;;;2.60;2.40;;;;;23.60;101318.00;;;;2079675;28;20229;-56
2022/07/12 00:37:20;;;;;;;2.10;1.90;;;;;23.60;101320.00;;;;2077976;28;20678;-55
2022/07/12 00:38:20;;;;;;;2.27;2.07;;;;;23.60;101310.00;;;;2078907;28;20264;-55
2022/07/12 00:39:21;;;;;;;3.90;2.37;;;;;23.60;101312.00;;;;2079919;28;20593;-55
2022/07/12 00:40:21;;;;;;;2.40;2.00;;;;;23.60;101315.00;;;;2079185;28;20214;-55
2022/07/12 00:41:22;;;;;;;1.70;1.60;;;;;23.60;101320.00;;;;2079141;28;20755;-56
2022/07/12 00:42:22;;;;;;;2.90;1.80;;;;;23.60;101320.00;;;;2067849;28;20960;-55
2022/07/12 00:43:22;;;;;;;2.47;2.27;;;;;23.60;101310.00;;;;2071569;28;20677;-55
2022/07/12 00:44:23;;;;;;;2.20;1.80;;;;;23.60;101315.00;;;;2071580;28;20693;-55
2022/07/12 00:45:23;;;;;;;2.80;1.70;;;;;23.50;101314.00;;;;2071178;28;20585;-55
2022/07/12 00:46:23;;;;;;;2.43;1.77;;;;;23.60;101305.00;;;;2069587;28;20206;-55
2022/07/12 00:47:40;;;;;;;1.60;1.50;;;;;23.60;101301.00;;;;2069774;28;20332;-55
2022/07/12 00:48:40;;;;;;;2.78;1.70;;;;;23.60;101296.00;;;;2071415;28;20237;-55
2022/07/12 00:49:40;;;;;;;2.30;1.60;;;;;23.60;101294.00;;;;2060584;28;20226;-56
2022/07/12 00:50:41;;;;;;;2.60;1.67;;;;;23.60;101293.00;;;;2061131;28;20215;-55
2022/07/12 00:51:44;;;;;;;2.30;2.10;;;;;23.60;101310.00;;;;2070988;28;20360;-55
2022/07/12 00:52:45;;;;;;;3.97;1.95;;;;;23.60;101291.00;;;;2072639;28;20224;-55
2022/07/12 00:53:46;;;;;;;1.50;1.40;;;;;23.60;101290.00;;;;2079509;28;20224;-55
2022/07/12 00:54:46;;;;;;;1.80;1.70;;;;;23.60;101286.00;;;;2078780;28;20452;-55
2022/07/12 00:55:46;;;;;;;1.90;1.60;;;;;23.50;101291.00;;;;2078582;28;20739;-55
2022/07/12 00:56:47;;;;;;;2.80;1.90;;;;;23.60;101294.00;;;;2079429;28;20677;-55
2022/07/12 00:57:48;;;;;;;2.47;1.70;;;;;23.60;101288.00;;;;2077668;28;20833;-56
2022/07/12 00:58:48;;;;;;;2.23;2.03;;;;;23.60;101290.00;;;;2078831;28;20692;-55
2022/07/12 00:59:48;;;;;;;1.63;1.53;;;;;23.60;101280.00;;;;2079443;28;20216;-56
2022/07/12 01:00:49;;;;;;;2.70;1.70;;;;;23.60;101280.00;;;;2078903;28;20213;-56
2022/07/12 01:01:49;;;;;;;2.13;1.73;;;;;23.60;101282.00;;;;2079291;28;20296;-55
2022/07/12 01:02:50;;;;;;;2.00;1.73;;;;;23.60;101268.00;;;;2072493;28;20718;-55
2022/07/12 01:03:51;;;;;;;2.55;1.90;;;;;23.60;101286.00;;;;2078512;28;20220;-55
2022/07/12 01:04:51;;;;;;;1.87;1.70;;;;;23.60;101281.00;;;;2078561;28;20376;-55
2022/07/12 01:05:51;;;;;;;1.80;1.70;;;;;23.60;101285.00;;;;2070412;28;20241;-55
2022/07/12 01:06:52;;;;;;;1.43;1.33;;;;;23.60;101242.00;;;;2078301;28;20233;-55
2022/07/12 01:07:53;;;;;;;2.03;1.57;;;;;23.60;101285.00;;;;2077314;28;20214;-55
2022/07/12 01:08:53;;;;;;;2.17;1.97;;;;;23.60;101288.00;;;;2078649;28;20221;-56
2022/07/12 01:09:54;;;;;;;2.17;1.80;;;;;23.60;101287.00;;;;2078308;28;20220;-55
2022/07/12 01:10:54;;;;;;;1.90;1.57;;;;;23.60;101290.00;;;;2078690;28;20221;-55
2022/07/12 01:11:54;;;;;;;2.30;1.40;;;;;23.60;101287.00;;;;2062194;28;21102;-55
2022/07/12 01:12:58;;;;;;;2.10;1.70;;;;;23.60;101290.00;;;;2070223;28;20799;-55
2022/07/12 01:13:58;;;;;;;2.85;1.90;;;;;23.50;101264.00;;;;2079520;28;20743;-56
2022/07/12 01:14:58;;;;;;;2.73;1.67;;;;;23.50;101284.00;;;;2070602;28;20291;-55
2022/07/12 01:15:59;;;;;;;2.57;1.67;;;;;23.50;101279.00;;;;2070073;28;20222;-59
2022/07/12 01:16:59;;;;;;;2.30;1.83;;;;;23.50;101274.00;;;;2085652;28;20577;-60
2022/07/12 01:18:00;;;;;;;1.83;1.60;;;;;23.60;101273.00;;;;2077728;28;20211;-57
2022/07/12 01:19:00;;;;;;;2.33;1.70;;;;;23.50;101277.00;;;;2078528;28;20213;-57
2022/07/12 01:20:01;;;;;;;1.87;1.67;;;;;23.60;101236.00;;;;2070274;28;20217;-56
2022/07/12 01:21:07;;;;;;;1.90;1.70;;;;;23.60;101271.00;;;;2070310;28;20221;-56
2022/07/12 01:22:09;;;;;;;1.60;1.30;;;;;23.60;101281.00;;;;2078769;28;20213;-55
2022/07/12 01:23:09;;;;;;;1.70;1.60;;;;;23.50;101242.00;;;;2079304;28;20707;-56
2022/07/12 01:24:09;;;;;;;1.87;1.30;;;;;23.50;101279.00;;;;2070089;28;20221;-55
2022/07/12 01:25:10;;;;;;;1.70;1.60;;;;;23.50;101282.00;;;;2070566;28;20769;-56
2022/07/12 01:26:10;;;;;;;2.03;1.70;;;;;23.50;101273.00;;;;2079119;28;20749;-55
2022/07/12 01:27:11;;;;;;;1.57;1.47;;;;;23.50;101278.00;;;;2079256;28;20210;-55
2022/07/12 01:28:12;;;;;;;2.57;1.43;;;;;23.50;101275.00;;;;2078386;28;20197;-55
2022/07/12 01:29:13;;;;;;;2.23;1.37;;;;;23.50;101275.00;;;;2078786;28;20440;-55
2022/07/12 01:30:13;;;;;;;1.60;1.50;;;;;23.50;101278.00;;;;2079259;28;20209;-56
2022/07/12 01:31:13;;;;;;;1.60;1.50;;;;;23.50;101121.00;;;;2079414;28;20227;-55
2022/07/12 01:32:26;;;;;;;1.77;1.60;;;;;23.50;101279.00;;;;2079204;28;20217;-55
2022/07/12 01:33:26;;;;;;;2.03;1.80;;;;;23.50;101285.00;;;;2078694;28;20217;-55
2022/07/12 01:34:26;;;;;;;1.50;1.40;;;;;23.50;101272.00;;;;2078630;28;20210;-55
2022/07/12 01:35:27;;;;;;;1.83;1.53;;;;;23.50;101267.00;;;;2078151;28;20220;-55
2022/07/12 01:36:28;;;;;;;1.53;1.43;;;;;23.50;101271.00;;;;2070129;28;20206;-55
2022/07/12 01:37:29;;;;;;;1.83;1.20;;;;;23.50;101272.00;;;;2076655;28;20213;-55
2022/07/12 01:38:29;;;;;;;1.90;1.70;;;;;23.50;101272.00;;;;2079000;28;20224;-55
2022/07/12 01:39:30;;;;;;;2.30;1.50;;;;;23.50;101276.00;;;;2067054;28;20214;-55
2022/07/12 01:40:30;;;;;;;2.07;1.30;;;;;23.50;101270.00;;;;2061698;28;20290;-56
2022/07/12 01:41:31;;;;;;;1.93;1.80;;;;;23.50;101277.00;;;;2069604;28;20457;-56
2022/07/12 01:42:32;;;;;;;1.83;1.43;;;;;23.50;101275.00;;;;2071147;28;20702;-56
2022/07/12 01:43:32;;;;;;;1.57;1.47;;;;;23.50;101279.00;;;;2071068;28;20483;-56
2022/07/12 01:44:32;;;;;;;1.57;1.47;;;;;23.50;101247.00;;;;2061913;28;20215;-55
2022/07/12 01:45:33;;;;;;;1.87;1.50;;;;;23.60;101273.00;;;;2062126;28;20554;-56
2022/07/12 01:46:33;;;;;;;1.80;1.60;;;;;23.50;101279.00;;;;2070455;28;20675;-55
2022/07/12 01:47:33;;;;;;;1.83;1.30;;;;;23.50;101282.00;;;;2069252;28;20635;-56
2022/07/12 01:48:34;;;;;;;1.43;1.33;;;;;23.50;101280.00;;;;2070010;28;20696;-56
2022/07/12 01:49:34;;;;;;;1.40;1.30;;;;;23.50;101283.00;;;;2068929;28;21646;-58
2022/07/12 01:50:35;;;;;;;1.93;1.47;;;;;22.90;101278.00;;;;2070003;28;20222;-57
2022/07/12 01:51:35;;;;;;;1.43;1.33;;;;;23.50;101280.00;;;;2070250;28;20261;-56
2022/07/12 01:52:36;;;;;;;2.10;1.43;;;;;23.50;101270.00;;;;2070632;28;20190;-55
2022/07/12 01:53:36;;;;;;;1.60;1.48;;;;;23.50;101295.00;;;;2070203;28;20210;-55
2022/07/12 01:54:37;;;;;;;1.77;1.67;;;;;23.50;101283.00;;;;2062082;28;20238;-55
2022/07/12 01:55:38;;;;;;;1.47;1.37;;;;;23.50;101277.00;;;;2070134;28;20230;-54
2022/07/12 01:56:38;;;;;;;1.50;1.38;;;;;23.50;101287.00;;;;2070105;28;20210;-55
2022/07/12 01:57:41;;;;;;;1.70;1.60;;;;;23.50;101284.00;;;;2061191;28;20221;-55
2022/07/12 01:58:41;;;;;;;1.20;1.10;;;;;23.50;101285.00;;;;2070361;28;20595;-54
2022/07/12 01:59:42;;;;;;;1.40;1.30;;;;;23.50;101286.00;;;;2070144;28;20218;-55
2022/07/12 02:00:42;;;;;;;1.47;1.37;;;;;23.50;101286.00;;;;2058199;28;20215;-54
2022/07/12 02:01:42;;;;;;;1.27;1.13;;;;;23.50;101294.00;;;;2070115;28;20721;-55
2022/07/12 02:02:44;;;;;;;1.40;1.10;;;;;23.50;101290.00;;;;2076374;28;20222;-55
2022/07/12 02:03:44;;;;;;;2.42;1.40;;;;;23.50;101291.00;;;;2070125;28;20217;-54
2022/07/12 02:04:44;;;;;;;2.07;1.60;;;;;23.50;101272.00;;;;2078173;28;20217;-54
2022/07/12 02:05:46;;;;;;;1.97;1.67;;;;;23.50;101295.00;;;;2078123;28;20288;-53
2022/07/12 02:06:46;;;;;;;1.63;1.52;;;;;23.50;101296.00;;;;2078968;28;20268;-55
2022/07/12 02:07:46;;;;;;;1.60;1.50;;;;;23.50;101289.00;;;;2076979;28;20226;-55
2022/07/12 02:08:47;;;;;;;1.93;1.30;;;;;23.50;101257.00;;;;2070115;28;20269;-55
2022/07/12 02:09:47;;;;;;;1.47;1.30;;;;;23.50;101289.00;;;;2077950;28;20206;-55
2022/07/12 02:10:47;;;;;;;2.10;1.50;;;;;23.50;101296.00;;;;2076648;28;20232;-54
2022/07/12 02:11:48;;;;;;;1.40;1.30;;;;;23.50;101293.00;;;;2078920;28;20217;-55
2022/07/12 02:12:48;;;;;;;1.60;1.40;;;;;23.50;101294.00;;;;2078564;28;20206;-54
2022/07/12 02:13:48;;;;;;;2.20;1.33;;;;;23.50;101289.00;;;;2078924;28;20233;-55
2022/07/12 02:14:49;;;;;;;1.20;1.10;;;;;23.50;101296.00;;;;2078859;28;20243;-56
2022/07/12 02:15:49;;;;;;;1.50;1.33;;;;;23.50;101109.00;;;;2078908;28;20205;-55
2022/07/12 02:16:50;;;;;;;1.47;1.33;;;;;23.50;101236.00;;;;2079007;28;20626;-54
2022/07/12 02:17:50;;;;;;;1.20;1.10;;;;;23.50;101295.00;;;;2070179;28;20293;-55
2022/07/12 02:18:50;;;;;;;2.10;1.40;;;;;23.50;101293.00;;;;2077649;28;20210;-55
2022/07/12 02:19:51;;;;;;;1.57;1.17;;;;;23.50;101297.00;;;;2078909;28;20604;-55
2022/07/12 02:20:51;;;;;;;1.67;1.57;;;;;23.50;101299.00;;;;2077445;28;20555;-56
2022/07/12 02:21:52;;;;;;;1.37;1.27;;;;;23.50;101298.00;;;;2075442;28;20210;-56
2022/07/12 02:22:52;;;;;;;1.60;1.40;;;;;23.50;101299.00;;;;2078560;28;20213;-53
2022/07/12 02:23:52;;;;;;;2.03;1.30;;;;;23.50;101299.00;;;;2077820;28;20235;-54
2022/07/12 02:24:53;;;;;;;1.30;1.20;;;;;23.50;101306.00;;;;2077965;28;20214;-55
2022/07/12 02:25:53;;;;;;;1.50;1.40;;;;;23.50;101301.00;;;;2078674;28;20241;-55
2022/07/12 02:26:53;;;;;;;1.10;1.00;;;;;23.50;101297.00;;;;2076441;28;20291;-55
2022/07/12 02:27:54;;;;;;;1.80;1.10;;;;;23.50;101295.00;;;;2076811;28;20744;-55
2022/07/12 02:28:54;;;;;;;1.37;1.27;;;;;23.50;101298.00;;;;2078695;28;20845;-55
2022/07/12 02:29:54;;;;;;;1.40;1.30;;;;;23.50;101300.00;;;;2078428;28;20228;-54
2022/07/12 02:30:55;;;;;;;1.27;1.17;;;;;23.50;101297.00;;;;2076143;28;20218;-54
2022/07/12 02:31:55;;;;;;;1.47;1.37;;;;;23.50;101298.00;;;;2078694;28;20236;-54
2022/07/12 02:32:55;;;;;;;1.47;1.33;;;;;23.50;101301.00;;;;2075866;28;20206;-55
2022/07/12 02:33:56;;;;;;;1.30;1.20;;;;;23.50;101308.00;;;;2070634;28;20333;-54
2022/07/12 02:34:56;;;;;;;1.60;1.20;;;;;23.50;101305.00;;;;2070584;28;20217;-55
2022/07/12 02:35:57;;;;;;;1.73;1.40;;;;;23.50;101305.00;;;;2062129;28;20280;-54
2022/07/12 02:36:57;;;;;;;1.50;1.40;;;;;23.50;101309.00;;;;2069236;28;20277;-54
2022/07/12 02:37:57;;;;;;;1.77;1.07;;;;;23.50;101309.00;;;;2069078;28;20229;-55
2022/07/12 02:39:02;;;;;;;1.60;1.17;;;;;23.50;101306.00;;;;2070760;28;20217;-55
2022/07/12 02:41:39;;;;;;;1.52;1.35;;;;;23.50;101306.00;;;;2051976;28;20704;-54
2022/07/12 02:42:39;;;;;;;1.47;1.37;;;;;23.50;101312.00;;;;2051959;28;20215;-55
2022/07/12 02:43:40;;;;;;;1.90;1.70;;;;;23.50;101307.00;;;;2059647;28;20748;-55
2022/07/12 02:44:40;;;;;;;1.40;1.30;;;;;23.50;101309.00;;;;2078397;28;20720;-55
2022/07/12 02:45:41;;;;;;;1.40;1.30;;;;;23.50;101312.00;;;;2076790;28;20222;-55
2022/07/12 02:46:41;;;;;;;1.37;1.27;;;;;23.50;101312.00;;;;2078763;28;20244;-55
2022/07/12 02:47:41;;;;;;;2.20;1.53;;;;;23.50;101310.00;;;;2077629;28;20244;-54
2022/07/12 02:48:42;;;;;;;1.67;1.10;;;;;23.50;101311.00;;;;2078887;28;20295;-54
2022/07/12 02:49:42;;;;;;;1.40;1.27;;;;;23.50;101311.00;;;;2078798;28;20221;-55
2022/07/12 02:50:42;;;;;;;1.40;1.30;;;;;23.50;101306.00;;;;2078508;28;20213;-54
2022/07/12 02:51:43;;;;;;;1.97;1.40;;;;;23.50;101315.00;;;;2078222;28;20244;-54
2022/07/12 02:52:43;;;;;;;2.07;1.10;;;;;23.50;101309.00;;;;2078610;28;20217;-55
2022/07/12 02:53:43;;;;;;;1.53;1.23;;;;;23.50;101313.00;;;;2078267;28;20229;-54
2022/07/12 02:54:44;;;;;;;1.37;1.10;;;;;23.50;101311.00;;;;2078395;28;20670;-54
2022/07/12 02:55:44;;;;;;;1.53;1.40;;;;;23.50;101320.00;;;;2078817;28;20460;-55
2022/07/12 02:56:45;;;;;;;1.37;1.20;;;;;23.50;101317.00;;;;2078570;28;20283;-55
2022/07/12 02:57:45;;;;;;;2.90;1.50;;;;;23.50;101320.00;;;;2077424;28;20229;-55
2022/07/12 02:58:45;;;;;;;1.30;1.20;;;;;23.50;101340.00;;;;2078568;28;20225;-55
2022/07/12 02:59:46;;;;;;;1.40;1.27;;;;;23.50;101316.00;;;;2078716;28;20283;-54
2022/07/12 03:00:46;;;;;;;1.23;1.10;;;;;23.50;101341.00;;;;2078573;28;20307;-54
2022/07/12 03:01:47;;;;;;;1.40;1.20;;;;;23.50;101311.00;;;;2078266;28;20221;-60
2022/07/12 03:02:47;;;;;;;2.10;1.47;;;;;23.50;101317.00;;;;2077654;28;20307;-59
2022/07/12 03:03:48;;;;;;;1.33;1.23;;;;;23.50;101305.00;;;;2077428;28;20261;-58
2022/07/12 03:04:48;;;;;;;1.57;1.47;;;;;23.50;101311.00;;;;2077502;28;20225;-56
2022/07/12 03:05:48;;;;;;;1.33;1.20;;;;;23.50;101312.00;;;;2077432;28;20233;-57
2022/07/12 03:06:49;;;;;;;1.63;1.40;;;;;23.40;101308.00;;;;2078039;28;20217;-55
2022/07/12 03:07:49;;;;;;;1.30;1.20;;;;;23.50;101322.00;;;;2076482;28;20218;-55
2022/07/12 03:08:50;;;;;;;1.60;1.13;;;;;23.50;101324.00;;;;2077747;28;20680;-56
2022/07/12 03:09:50;;;;;;;1.27;1.00;;;;;23.50;101320.00;;;;2078026;28;20321;-55
2022/07/12 03:10:50;;;;;;;1.13;1.03;;;;;23.50;101374.00;;;;2077630;28;20259;-55
2022/07/12 03:11:51;;;;;;;1.43;1.20;;;;;23.50;101329.00;;;;2073184;28;20245;-55
2022/07/12 03:12:51;;;;;;;1.30;1.20;;;;;23.50;101316.00;;;;2068676;28;20678;-55
2022/07/12 03:13:52;;;;;;;2.23;1.33;;;;;23.50;101319.00;;;;2070608;28;20304;-55
2022/07/12 03:14:52;;;;;;;1.93;1.40;;;;;23.50;101321.00;;;;2070433;28;20762;-55
2022/07/12 03:15:52;;;;;;;3.30;1.30;;;;;23.40;101317.00;;;;2061562;28;20582;-55
2022/07/12 03:16:52;;;;;;;1.47;1.27;;;;;23.40;101319.00;;;;2061449;28;20656;-55
2022/07/12 03:17:53;;;;;;;1.30;1.03;;;;;23.50;101321.00;;;;2069305;28;20702;-55
2022/07/12 03:18:53;;;;;;;2.43;0.93;;;;;23.50;101314.00;;;;2070603;28;20218;-55
2022/07/12 03:19:54;;;;;;;1.50;1.10;;;;;23.40;101316.00;;;;2070280;28;20326;-55
2022/07/12 03:20:54;;;;;;;1.57;1.10;;;;;23.40;101312.00;;;;2070148;28;20800;-55
2022/07/12 03:21:55;;;;;;;1.40;1.30;;;;;23.40;101325.00;;;;2070571;28;20491;-54
2022/07/12 03:22:55;;;;;;;1.30;1.20;;;;;23.40;101324.00;;;;2070354;28;20707;-54
2022/07/12 03:23:55;;;;;;;1.97;1.27;;;;;23.40;101321.00;;;;2070181;28;20261;-54
2022/07/12 03:24:56;;;;;;;1.80;1.00;;;;;23.40;101322.00;;;;2070343;28;20225;-54
2022/07/12 03:25:56;;;;;;;1.60;1.30;;;;;23.40;101318.00;;;;2070053;28;20223;-55
2022/07/12 03:26:56;;;;;;;2.40;1.20;;;;;23.40;101323.00;;;;2070495;28;20272;-56
2022/07/12 03:27:57;;;;;;;2.20;1.30;;;;;23.40;101315.00;;;;2069379;28;20578;-55
2022/07/12 03:29:00;;;;;;;1.63;1.17;;;;;23.40;101319.00;;;;2070478;28;20222;-55
2022/07/12 03:30:01;;;;;;;3.22;1.00;;;;;23.40;101321.00;;;;2073681;28;20602;-55
2022/07/12 03:31:01;;;;;;;1.07;0.87;;;;;23.40;101318.00;;;;2080113;28;20241;-55
2022/07/12 03:32:02;;;;;;;3.57;1.50;;;;;23.40;101313.00;;;;2079309;28;20202;-56
2022/07/12 03:33:03;;;;;;;1.00;0.90;;;;;23.40;101316.00;;;;2079471;28;20209;-56
2022/07/12 03:34:03;;;;;;;1.83;1.00;;;;;23.40;101321.00;;;;2080008;28;20240;-55
2022/07/12 03:35:04;;;;;;;1.00;0.90;;;;;23.40;101309.00;;;;2080006;28;20484;-55
2022/07/12 03:36:06;;;;;;;1.60;1.20;;;;;23.40;101346.00;;;;2080040;28;20212;-55
2022/07/12 03:37:06;;;;;;;1.35;1.23;;;;;23.40;101311.00;;;;2078123;28;20490;-54
2022/07/12 03:38:07;;;;;;;1.33;1.07;;;;;23.40;101310.00;;;;2079183;28;20206;-54
2022/07/12 03:39:07;;;;;;;1.43;1.30;;;;;23.40;101307.00;;;;2079764;28;20221;-55
2022/07/12 03:40:08;;;;;;;1.57;1.47;;;;;23.40;101315.00;;;;2079934;28;20259;-55
2022/07/12 03:41:08;;;;;;;1.93;1.73;;;;;23.40;101311.00;;;;2080063;28;20210;-55
2022/07/12 03:42:11;;;;;;;3.20;1.30;;;;;23.40;101307.00;;;;2080324;28;20205;-54
2022/07/12 03:43:11;;;;;;;2.97;1.30;;;;;23.40;101308.00;;;;2080141;28;20241;-55
2022/07/12 03:44:11;;;;;;;1.43;0.90;;;;;23.40;101313.00;;;;2079981;28;20264;-56
2022/07/12 03:45:12;;;;;;;3.23;1.17;;;;;23.40;101315.00;;;;2080038;28;20208;-55
2022/07/12 03:46:12;;;;;;;1.23;0.90;;;;;23.40;101313.00;;;;2079796;28;20225;-55
2022/07/12 03:47:13;;;;;;;2.30;1.40;;;;;23.40;101309.00;;;;2080128;28;20198;-53
2022/07/12 03:48:13;;;;;;;3.27;1.20;;;;;23.40;101311.00;;;;2071184;28;20709;-55
2022/07/12 03:49:14;;;;;;;1.67;1.17;;;;;23.40;101300.00;;;;2071142;28;20210;-55
2022/07/12 03:50:14;;;;;;;1.03;0.93;;;;;23.40;101301.00;;;;2077613;28;20244;-54
2022/07/12 03:51:15;;;;;;;1.60;1.20;;;;;23.50;101306.00;;;;2079095;28;20221;-53
2022/07/12 03:52:15;;;;;;;1.40;1.30;;;;;23.50;101317.00;;;;2079306;28;20217;-53
2022/07/12 03:53:15;;;;;;;1.40;1.20;;;;;23.50;101304.00;;;;2072605;28;20225;-54
2022/07/12 03:54:15;;;;;;;1.27;1.17;;;;;23.40;101310.00;;;;2078055;28;20217;-55
2022/07/12 03:55:16;;;;;;;2.27;1.23;;;;;23.50;101306.00;;;;2071769;28;20241;-55
2022/07/12 03:57:35;;;;;;;1.40;1.10;;;;;23.40;101303.00;;;;2070779;28;20686;-55
2022/07/12 03:58:36;;;;;;;1.40;1.30;;;;;23.40;101306.00;;;;2071571;28;20214;-54
2022/07/12 03:59:36;;;;;;;1.90;1.23;;;;;23.40;101303.00;;;;2071719;28;20557;-54
2022/07/12 04:00:37;;;;;;;1.20;1.10;;;;;23.40;101306.00;;;;2069790;28;20569;-54
2022/07/12 04:01:37;;;;;;;1.17;1.07;;;;;23.40;101309.00;;;;2070852;28;20296;-55
2022/07/12 04:02:39;;;;;;;1.20;1.00;;;;;23.40;101312.00;;;;2071726;28;20210;-55
2022/07/12 04:03:39;;;;;;;2.28;1.40;;;;;23.40;101309.00;;;;2071728;28;20222;-54
2022/07/12 04:04:41;;;;;;;1.53;1.07;;;;;23.40;101306.00;;;;2071634;28;20282;-55
2022/07/12 04:05:41;;;;;;;1.20;1.10;;;;;23.40;101311.00;;;;2071786;28;20716;-55
2022/07/12 04:06:42;;;;;;;2.20;1.03;;;;;23.40;101309.00;;;;2071475;28;20214;-54
2022/07/12 04:07:42;;;;;;;1.30;1.00;;;;;23.40;101313.00;;;;2070791;28;20206;-54
2022/07/12 04:08:42;;;;;;;1.40;1.27;;;;;23.40;101310.00;;;;2071719;28;20630;-54
2022/07/12 04:09:43;;;;;;;1.60;1.30;;;;;23.40;101311.00;;;;2071780;28;20724;-55
2022/07/12 04:10:43;;;;;;;1.57;1.03;;;;;23.40;101315.00;;;;2071596;28;20845;-55
2022/07/12 04:11:43;;;;;;;1.53;1.20;;;;;23.40;101316.00;;;;2071584;28;20698;-55
2022/07/12 04:12:44;;;;;;;1.40;1.10;;;;;23.40;101318.00;;;;2071606;28;20699;-55
2022/07/12 04:13:44;;;;;;;1.23;1.13;;;;;23.40;101314.00;;;;2071838;28;20745;-55
2022/07/12 04:14:44;;;;;;;1.97;1.10;;;;;23.40;101347.00;;;;2071311;28;20707;-54
2022/07/12 04:15:45;;;;;;;1.17;1.07;;;;;23.40;101324.00;;;;2079896;28;20732;-55
2022/07/12 04:16:45;;;;;;;1.20;1.00;;;;;23.40;101316.00;;;;2079828;28;20702;-55
2022/07/12 04:17:45;;;;;;;0.97;0.87;;;;;23.40;101318.00;;;;2077319;28;20584;-55
2022/07/12 04:18:46;;;;;;;1.83;1.10;;;;;23.40;101317.00;;;;2079209;28;20220;-55
2022/07/12 04:19:46;;;;;;;2.03;1.23;;;;;23.40;101318.00;;;;2079076;28;20280;-56
2022/07/12 04:20:46;;;;;;;1.40;1.30;;;;;23.40;101321.00;;;;2079035;28;20697;-55
2022/07/12 04:21:47;;;;;;;1.27;0.93;;;;;23.40;101321.00;;;;2079758;28;20728;-55
2022/07/12 04:22:47;;;;;;;1.20;0.93;;;;;23.40;101315.00;;;;2079717;28;20690;-55
2022/07/12 04:23:47;;;;;;;1.50;1.37;;;;;23.40;101323.00;;;;2079483;28;20701;-55
2022/07/12 04:24:48;;;;;;;1.50;1.20;;;;;23.40;101322.00;;;;2079524;28;20210;-55
2022/07/12 04:25:48;;;;;;;1.23;1.03;;;;;23.40;101325.00;;;;2079555;28;20292;-56
2022/07/12 04:26:48;;;;;;;1.37;0.97;;;;;23.40;101318.00;;;;2079825;28;20214;-56
2022/07/12 04:27:49;;;;;;;1.20;1.10;;;;;23.40;101323.00;;;;2078734;28;20232;-55
2022/07/12 04:28:49;;;;;;;1.67;1.27;;;;;23.40;101327.00;;;;2079445;28;20218;-55
2022/07/12 04:29:49;;;;;;;1.80;1.00;;;;;23.40;101336.00;;;;2079566;28;20259;-55
2022/07/12 04:30:50;;;;;;;1.40;1.13;;;;;23.40;101333.00;;;;2079468;28;20732;-55
2022/07/12 04:31:50;;;;;;;1.10;0.90;;;;;23.40;101324.00;;;;2079742;28;20217;-55
2022/07/12 04:32:50;;;;;;;1.00;0.90;;;;;23.40;101323.00;;;;2079376;28;20266;-55
2022/07/12 04:33:51;;;;;;;1.10;1.00;;;;;23.40;101325.00;;;;2079557;28;20225;-56
2022/07/12 04:34:51;;;;;;;1.13;1.03;;;;;23.40;101325.00;;;;2078907;28;20276;-55
2022/07/12 04:35:51;;;;;;;1.63;1.30;;;;;23.40;101335.00;;;;2079050;28;20240;-56
2022/07/12 04:36:52;;;;;;;1.30;1.20;;;;;23.40;101328.00;;;;2077652;28;20304;-55
2022/07/12 04:37:52;;;;;;;1.50;1.20;;;;;23.40;101334.00;;;;2078797;28;20515;-56
2022/07/12 04:38:52;;;;;;;1.23;1.13;;;;;23.40;101330.00;;;;2079400;28;20717;-56
2022/07/12 04:39:53;;;;;;;1.07;0.87;;;;;23.40;101323.00;;;;2079723;28;20722;-56
2022/07/12 04:40:53;;;;;;;1.20;1.10;;;;;23.40;101330.00;;;;2079175;28;20218;-55
2022/07/12 04:41:53;;;;;;;1.63;1.13;;;;;23.40;101327.00;;;;2079002;28;20882;-56
2022/07/12 04:42:54;;;;;;;1.10;1.00;;;;;23.40;101331.00;;;;2079636;28;20786;-55
2022/07/12 04:43:54;;;;;;;1.50;1.30;;;;;23.40;101337.00;;;;2076638;28;20671;-55
2022/07/12 04:44:54;;;;;;;1.63;1.17;;;;;23.40;101344.00;;;;2071137;28;20297;-55
2022/07/12 04:45:55;;;;;;;1.63;1.30;;;;;23.40;101334.00;;;;2071292;28;20250;-55
2022/07/12 04:46:55;;;;;;;1.20;1.10;;;;;23.40;101339.00;;;;2071428;28;20222;-55
2022/07/12 04:47:55;;;;;;;1.23;1.10;;;;;23.00;101341.00;;;;2070572;28;20226;-56
2022/07/12 04:48:56;;;;;;;1.17;1.07;;;;;23.50;101338.00;;;;2071217;28;20229;-55
2022/07/12 04:49:56;;;;;;;1.07;0.97;;;;;23.50;101347.00;;;;2071336;28;20225;-56
2022/07/12 04:50:56;;;;;;;1.10;1.00;;;;;23.50;101344.00;;;;2071285;28;20737;-55
2022/07/12 04:51:57;;;;;;;4.00;1.20;;;;;23.50;101338.00;;;;2071467;28;20596;-55
2022/07/12 04:52:58;;;;;;;1.30;1.20;;;;;23.50;101337.00;;;;2071328;28;20237;-56
2022/07/12 04:53:58;;;;;;;1.50;1.20;;;;;23.50;101211.00;;;;2071553;28;20276;-55
2022/07/12 04:54:59;;;;;;;1.40;1.30;;;;;23.50;101334.00;;;;2070998;28;21136;-54
2022/07/12 04:55:59;;;;;;;1.50;1.20;;;;;23.50;101341.00;;;;2071486;28;20226;-55
2022/07/12 04:56:59;;;;;;;1.40;1.20;;;;;23.50;101344.00;;;;2071314;28;20245;-55
2022/07/12 04:58:00;;;;;;;1.43;1.33;;;;;23.50;101344.00;;;;2070168;28;20233;-55
2022/07/12 04:59:00;;;;;;;1.60;1.17;;;;;23.50;101338.00;;;;2071293;28;20225;-55
2022/07/12 05:00:00;;;;;;;2.57;1.13;;;;;23.40;101335.00;;;;2076492;28;20239;-55
2022/07/12 05:01:01;;;;;;;1.40;1.20;;;;;23.50;101337.00;;;;2073126;28;20226;-55
2022/07/12 05:02:01;;;;;;;1.60;0.93;;;;;23.50;101337.00;;;;2071285;28;20630;-56